sensor_id;sensor_type;location;lat;lon;timestamp;temperature;humidity
78647;DHT22;67961;43.460;3.762;2023-05-10T00:01:23;17.20;60.00
78647;DHT22;67961;43.460;3.762;2023-05-10T00:03:49;17.20;60.00
78647;DHT22;67961;43.460;3.762;2023-05-10T00:06:14;17.20;59.90
78647;DHT22;67961;43.460;3.762;2023-05-10T00:08:40;17.10;59.70
78647;DHT22;67961;43.460;3.762;2023-05-10T00:11:06;17.10;59.70
78647;DHT22;67961;43.460;3.762;2023-05-10T00:13:31;17.00;59.70
78647;DHT22;67961;43.460;3.762;2023-05-10T00:15:57;17.00;59.60
78647;DHT22;67961;43.460;3.762;2023-05-10T00:18:23;17.00;59.70
78647;DHT22;67961;43.460;3.762;2023-05-10T00:20:49;17.00;59.60
78647;DHT22;67961;43.460;3.762;2023-05-10T00:23:14;17.00;59.80
78647;DHT22;67961;43.460;3.762;2023-05-10T00:25:40;17.00;59.60
78647;DHT22;67961;43.460;3.762;2023-05-10T00:44:55;16.80;59.40
78647;DHT22;67961;43.460;3.762;2023-05-10T00:47:22;16.80;59.60
78647;DHT22;67961;43.460;3.762;2023-05-10T00:49:47;16.80;59.60
78647;DHT22;67961;43.460;3.762;2023-05-10T00:52:13;16.80;59.40
78647;DHT22;67961;43.460;3.762;2023-05-10T00:54:39;16.70;59.50
78647;DHT22;67961;43.460;3.762;2023-05-10T00:57:05;16.70;59.40
78647;DHT22;67961;43.460;3.762;2023-05-10T00:59:30;16.70;60.00
78647;DHT22;67961;43.460;3.762;2023-05-10T01:01:57;16.60;59.80
78647;DHT22;67961;43.460;3.762;2023-05-10T01:04:23;16.60;59.80
78647;DHT22;67961;43.460;3.762;2023-05-10T01:06:52;16.60;60.00
78647;DHT22;67961;43.460;3.762;2023-05-10T01:09:18;16.50;60.40
78647;DHT22;67961;43.460;3.762;2023-05-10T01:11:45;16.50;60.50
78647;DHT22;67961;43.460;3.762;2023-05-10T01:14:11;16.50;60.30
78647;DHT22;67961;43.460;3.762;2023-05-10T01:16:38;16.50;60.30
78647;DHT22;67961;43.460;3.762;2023-05-10T01:19:32;16.50;60.40
78647;DHT22;67961;43.460;3.762;2023-05-10T01:24:39;16.50;60.40
78647;DHT22;67961;43.460;3.762;2023-05-10T01:27:14;16.50;60.50
78647;DHT22;67961;43.460;3.762;2023-05-10T01:32:21;16.40;60.50
78647;DHT22;67961;43.460;3.762;2023-05-10T01:35:12;16.50;60.60
78647;DHT22;67961;43.460;3.762;2023-05-10T01:38:00;16.40;60.10
78647;DHT22;67961;43.460;3.762;2023-05-10T01:40:35;16.40;60.20
78647;DHT22;67961;43.460;3.762;2023-05-10T01:43:05;16.40;59.90
78647;DHT22;67961;43.460;3.762;2023-05-10T01:48:21;16.30;59.50
78647;DHT22;67961;43.460;3.762;2023-05-10T01:50:48;16.30;59.50
78647;DHT22;67961;43.460;3.762;2023-05-10T01:53:18;16.30;59.30
78647;DHT22;67961;43.460;3.762;2023-05-10T01:55:51;16.30;59.20
78647;DHT22;67961;43.460;3.762;2023-05-10T01:58:21;16.30;58.90
78647;DHT22;67961;43.460;3.762;2023-05-10T02:00:49;16.20;59.20
78647;DHT22;67961;43.460;3.762;2023-05-10T02:03:18;16.20;59.30
78647;DHT22;67961;43.460;3.762;2023-05-10T02:05:48;16.10;59.50
78647;DHT22;67961;43.460;3.762;2023-05-10T02:08:16;16.10;59.70
78647;DHT22;67961;43.460;3.762;2023-05-10T02:10:44;16.10;59.60
78647;DHT22;67961;43.460;3.762;2023-05-10T02:13:11;16.10;59.70
78647;DHT22;67961;43.460;3.762;2023-05-10T02:15:38;16.00;59.90
78647;DHT22;67961;43.460;3.762;2023-05-10T02:18:05;16.00;59.90
78647;DHT22;67961;43.460;3.762;2023-05-10T02:20:31;16.10;59.70
78647;DHT22;67961;43.460;3.762;2023-05-10T02:22:58;16.00;60.00
78647;DHT22;67961;43.460;3.762;2023-05-10T02:25:25;16.00;60.00
78647;DHT22;67961;43.460;3.762;2023-05-10T02:27:54;16.00;60.10
78647;DHT22;67961;43.460;3.762;2023-05-10T02:30:22;16.00;60.00
78647;DHT22;67961;43.460;3.762;2023-05-10T02:32:48;16.00;59.80
78647;DHT22;67961;43.460;3.762;2023-05-10T02:35:14;16.00;60.00
78647;DHT22;67961;43.460;3.762;2023-05-10T02:37:42;15.90;60.10
78647;DHT22;67961;43.460;3.762;2023-05-10T02:40:10;15.90;60.00
78647;DHT22;67961;43.460;3.762;2023-05-10T02:42:37;15.80;60.10
78647;DHT22;67961;43.460;3.762;2023-05-10T02:45:24;15.80;59.70
78647;DHT22;67961;43.460;3.762;2023-05-10T02:47:51;15.80;59.90
78647;DHT22;67961;43.460;3.762;2023-05-10T02:50:18;15.80;59.90
78647;DHT22;67961;43.460;3.762;2023-05-10T02:52:50;15.80;59.80
78647;DHT22;67961;43.460;3.762;2023-05-10T02:55:22;15.70;60.10
78647;DHT22;67961;43.460;3.762;2023-05-10T02:57:58;15.60;60.10
78647;DHT22;67961;43.460;3.762;2023-05-10T03:00:25;15.60;59.90
78647;DHT22;67961;43.460;3.762;2023-05-10T03:02:50;15.60;59.70
78647;DHT22;67961;43.460;3.762;2023-05-10T03:05:16;15.60;59.80
78647;DHT22;67961;43.460;3.762;2023-05-10T03:07:42;15.60;59.70
78647;DHT22;67961;43.460;3.762;2023-05-10T03:10:08;15.50;60.00
78647;DHT22;67961;43.460;3.762;2023-05-10T03:13:00;15.40;59.70
78647;DHT22;67961;43.460;3.762;2023-05-10T03:18:09;15.50;59.50
78647;DHT22;67961;43.460;3.762;2023-05-10T03:20:38;15.50;59.40
78647;DHT22;67961;43.460;3.762;2023-05-10T03:23:20;15.50;59.90
78647;DHT22;67961;43.460;3.762;2023-05-10T03:25:48;15.40;59.50
78647;DHT22;67961;43.460;3.762;2023-05-10T03:28:15;15.40;59.70
78647;DHT22;67961;43.460;3.762;2023-05-10T03:30:43;15.50;59.60
78647;DHT22;67961;43.460;3.762;2023-05-10T03:33:09;15.40;59.50
78647;DHT22;67961;43.460;3.762;2023-05-10T03:35:36;15.30;59.20
78647;DHT22;67961;43.460;3.762;2023-05-10T03:38:02;15.20;59.50
78647;DHT22;67961;43.460;3.762;2023-05-10T03:40:28;15.30;59.40
78647;DHT22;67961;43.460;3.762;2023-05-10T03:42:56;15.20;59.20
78647;DHT22;67961;43.460;3.762;2023-05-10T03:45:22;15.20;58.90
78647;DHT22;67961;43.460;3.762;2023-05-10T03:47:48;15.20;58.50
78647;DHT22;67961;43.460;3.762;2023-05-10T03:50:13;15.20;58.40
78647;DHT22;67961;43.460;3.762;2023-05-10T03:52:39;15.10;58.70
78647;DHT22;67961;43.460;3.762;2023-05-10T03:55:05;15.10;58.70
78647;DHT22;67961;43.460;3.762;2023-05-10T03:57:31;15.10;58.70
78647;DHT22;67961;43.460;3.762;2023-05-10T03:59:57;15.00;58.80
78647;DHT22;67961;43.460;3.762;2023-05-10T04:02:23;15.00;58.80
78647;DHT22;67961;43.460;3.762;2023-05-10T04:04:48;15.00;58.70
78647;DHT22;67961;43.460;3.762;2023-05-10T04:07:14;15.10;58.70
78647;DHT22;67961;43.460;3.762;2023-05-10T04:09:40;15.00;58.60
78647;DHT22;67961;43.460;3.762;2023-05-10T04:12:06;15.00;58.70
78647;DHT22;67961;43.460;3.762;2023-05-10T04:14:32;15.00;58.70
78647;DHT22;67961;43.460;3.762;2023-05-10T04:16:57;15.00;58.50
78647;DHT22;67961;43.460;3.762;2023-05-10T04:19:23;15.00;58.80
78647;DHT22;67961;43.460;3.762;2023-05-10T04:21:49;15.00;58.70
78647;DHT22;67961;43.460;3.762;2023-05-10T04:24:14;15.00;59.00
78647;DHT22;67961;43.460;3.762;2023-05-10T04:26:40;15.00;58.90
78647;DHT22;67961;43.460;3.762;2023-05-10T04:29:06;14.90;59.10
78647;DHT22;67961;43.460;3.762;2023-05-10T04:31:32;14.90;59.30
78647;DHT22;67961;43.460;3.762;2023-05-10T04:33:57;15.00;59.50
78647;DHT22;67961;43.460;3.762;2023-05-10T04:36:23;15.20;59.30
78647;DHT22;67961;43.460;3.762;2023-05-10T04:38:49;15.60;58.70
78647;DHT22;67961;43.460;3.762;2023-05-10T04:41:14;16.10;58.70
78647;DHT22;67961;43.460;3.762;2023-05-10T04:43:40;16.10;58.20
78647;DHT22;67961;43.460;3.762;2023-05-10T04:46:06;16.40;57.30
78647;DHT22;67961;43.460;3.762;2023-05-10T04:48:32;16.50;57.70
78647;DHT22;67961;43.460;3.762;2023-05-10T04:50:58;15.90;58.30
78647;DHT22;67961;43.460;3.762;2023-05-10T04:53:24;15.60;58.80
78647;DHT22;67961;43.460;3.762;2023-05-10T04:55:49;15.50;59.20
78647;DHT22;67961;43.460;3.762;2023-05-10T04:58:15;15.50;59.00
78647;DHT22;67961;43.460;3.762;2023-05-10T05:00:41;15.50;59.00
78647;DHT22;67961;43.460;3.762;2023-05-10T05:03:07;15.50;59.10
78647;DHT22;67961;43.460;3.762;2023-05-10T05:05:33;15.50;59.20
78647;DHT22;67961;43.460;3.762;2023-05-10T05:07:58;15.60;59.10
78647;DHT22;67961;43.460;3.762;2023-05-10T05:10:24;15.60;59.20
78647;DHT22;67961;43.460;3.762;2023-05-10T05:12:50;15.80;59.00
78647;DHT22;67961;43.460;3.762;2023-05-10T05:15:16;15.80;59.00
78647;DHT22;67961;43.460;3.762;2023-05-10T05:17:42;15.80;59.10
78647;DHT22;67961;43.460;3.762;2023-05-10T05:20:09;15.80;59.30
78647;DHT22;67961;43.460;3.762;2023-05-10T05:22:36;15.80;59.50
78647;DHT22;67961;43.460;3.762;2023-05-10T05:25:02;15.80;59.80
78647;DHT22;67961;43.460;3.762;2023-05-10T05:27:29;15.80;59.90
78647;DHT22;67961;43.460;3.762;2023-05-10T05:29:58;15.80;60.20
78647;DHT22;67961;43.460;3.762;2023-05-10T05:32:24;15.90;60.30
78647;DHT22;67961;43.460;3.762;2023-05-10T05:34:50;15.80;60.50
78647;DHT22;67961;43.460;3.762;2023-05-10T05:37:17;15.80;60.40
78647;DHT22;67961;43.460;3.762;2023-05-10T05:39:43;15.80;60.40
78647;DHT22;67961;43.460;3.762;2023-05-10T05:42:10;15.80;60.50
78647;DHT22;67961;43.460;3.762;2023-05-10T05:44:35;15.80;60.60
78647;DHT22;67961;43.460;3.762;2023-05-10T05:47:01;15.80;60.20
78647;DHT22;67961;43.460;3.762;2023-05-10T05:49:27;15.80;60.20
78647;DHT22;67961;43.460;3.762;2023-05-10T05:51:52;15.80;60.30
78647;DHT22;67961;43.460;3.762;2023-05-10T05:54:18;15.80;60.50
78647;DHT22;67961;43.460;3.762;2023-05-10T05:56:44;15.80;60.50
78647;DHT22;67961;43.460;3.762;2023-05-10T05:59:10;15.80;60.20
78647;DHT22;67961;43.460;3.762;2023-05-10T06:01:36;15.80;59.20
78647;DHT22;67961;43.460;3.762;2023-05-10T06:04:01;15.80;59.00
78647;DHT22;67961;43.460;3.762;2023-05-10T06:06:27;16.00;58.60
78647;DHT22;67961;43.460;3.762;2023-05-10T06:08:53;16.10;57.30
78647;DHT22;67961;43.460;3.762;2023-05-10T06:11:19;16.10;56.80
78647;DHT22;67961;43.460;3.762;2023-05-10T06:13:46;16.00;56.60
78647;DHT22;67961;43.460;3.762;2023-05-10T06:16:12;16.00;56.50
78647;DHT22;67961;43.460;3.762;2023-05-10T06:18:38;16.10;56.40
78647;DHT22;67961;43.460;3.762;2023-05-10T06:21:04;16.10;56.00
78647;DHT22;67961;43.460;3.762;2023-05-10T06:23:30;16.20;55.40
78647;DHT22;67961;43.460;3.762;2023-05-10T06:25:55;16.10;55.50
78647;DHT22;67961;43.460;3.762;2023-05-10T06:28:21;16.10;55.40
78647;DHT22;67961;43.460;3.762;2023-05-10T06:30:46;16.00;54.80
78647;DHT22;67961;43.460;3.762;2023-05-10T06:33:13;16.00;54.30
78647;DHT22;67961;43.460;3.762;2023-05-10T06:35:38;16.00;54.80
78647;DHT22;67961;43.460;3.762;2023-05-10T06:38:04;16.00;54.20
78647;DHT22;67961;43.460;3.762;2023-05-10T06:40:30;16.00;54.10
78647;DHT22;67961;43.460;3.762;2023-05-10T06:42:56;16.00;54.00
78647;DHT22;67961;43.460;3.762;2023-05-10T06:45:21;16.10;53.80
78647;DHT22;67961;43.460;3.762;2023-05-10T06:47:47;16.10;53.70
78647;DHT22;67961;43.460;3.762;2023-05-10T06:50:13;16.10;53.80
78647;DHT22;67961;43.460;3.762;2023-05-10T06:52:39;16.10;53.60
78647;DHT22;67961;43.460;3.762;2023-05-10T06:55:05;16.20;53.60
78647;DHT22;67961;43.460;3.762;2023-05-10T06:57:31;16.20;52.90
78647;DHT22;67961;43.460;3.762;2023-05-10T06:59:58;16.30;53.00
78647;DHT22;67961;43.460;3.762;2023-05-10T07:02:24;16.30;52.90
78647;DHT22;67961;43.460;3.762;2023-05-10T07:04:50;16.40;52.90
78647;DHT22;67961;43.460;3.762;2023-05-10T07:07:17;16.50;53.10
78647;DHT22;67961;43.460;3.762;2023-05-10T07:09:43;16.60;52.80
78647;DHT22;67961;43.460;3.762;2023-05-10T07:12:08;16.70;51.90
78647;DHT22;67961;43.460;3.762;2023-05-10T07:14:34;16.70;51.60
78647;DHT22;67961;43.460;3.762;2023-05-10T07:16:59;16.80;51.10
78647;DHT22;67961;43.460;3.762;2023-05-10T07:19:25;16.90;51.50
78647;DHT22;67961;43.460;3.762;2023-05-10T07:21:51;16.90;51.00
78647;DHT22;67961;43.460;3.762;2023-05-10T07:24:16;16.90;50.60
78647;DHT22;67961;43.460;3.762;2023-05-10T07:26:43;16.90;51.00
78647;DHT22;67961;43.460;3.762;2023-05-10T07:29:08;17.00;50.20
78647;DHT22;67961;43.460;3.762;2023-05-10T07:31:34;17.00;50.00
78647;DHT22;67961;43.460;3.762;2023-05-10T07:34:00;17.00;50.10
78647;DHT22;67961;43.460;3.762;2023-05-10T07:36:25;17.10;50.00
78647;DHT22;67961;43.460;3.762;2023-05-10T07:38:51;17.20;50.20
78647;DHT22;67961;43.460;3.762;2023-05-10T07:41:17;17.40;49.70
78647;DHT22;67961;43.460;3.762;2023-05-10T07:43:43;17.50;49.10
78647;DHT22;67961;43.460;3.762;2023-05-10T07:46:09;17.50;49.20
78647;DHT22;67961;43.460;3.762;2023-05-10T07:48:36;17.60;49.10
78647;DHT22;67961;43.460;3.762;2023-05-10T07:51:02;17.60;49.10
78647;DHT22;67961;43.460;3.762;2023-05-10T07:53:28;17.90;48.80
78647;DHT22;67961;43.460;3.762;2023-05-10T07:55:57;18.30;48.60
78647;DHT22;67961;43.460;3.762;2023-05-10T07:58:26;19.20;47.30
78647;DHT22;67961;43.460;3.762;2023-05-10T08:00:52;19.30;46.90
78647;DHT22;67961;43.460;3.762;2023-05-10T08:03:17;19.90;45.80
78647;DHT22;67961;43.460;3.762;2023-05-10T08:05:43;22.00;43.40
78647;DHT22;67961;43.460;3.762;2023-05-10T08:08:09;25.30;38.90
78647;DHT22;67961;43.460;3.762;2023-05-10T08:10:34;27.00;36.90
78647;DHT22;67961;43.460;3.762;2023-05-10T08:13:00;28.30;35.80
78647;DHT22;67961;43.460;3.762;2023-05-10T08:15:26;28.30;35.40
78647;DHT22;67961;43.460;3.762;2023-05-10T08:17:52;28.80;35.10
78647;DHT22;67961;43.460;3.762;2023-05-10T08:20:18;28.10;35.70
78647;DHT22;67961;43.460;3.762;2023-05-10T08:22:45;25.00;37.40
78647;DHT22;67961;43.460;3.762;2023-05-10T08:25:11;23.30;40.10
78647;DHT22;67961;43.460;3.762;2023-05-10T08:27:37;22.20;40.90
78647;DHT22;67961;43.460;3.762;2023-05-10T08:30:03;21.70;41.20
78647;DHT22;67961;43.460;3.762;2023-05-10T08:32:28;21.70;42.00
78647;DHT22;67961;43.460;3.762;2023-05-10T08:34:55;21.90;41.80
78647;DHT22;67961;43.460;3.762;2023-05-10T08:37:22;21.40;43.20
78647;DHT22;67961;43.460;3.762;2023-05-10T08:39:48;21.50;42.70
78647;DHT22;67961;43.460;3.762;2023-05-10T08:42:16;21.60;42.30
78647;DHT22;67961;43.460;3.762;2023-05-10T08:44:46;21.70;43.50
78647;DHT22;67961;43.460;3.762;2023-05-10T08:47:16;22.20;42.50
78647;DHT22;67961;43.460;3.762;2023-05-10T08:49:44;21.80;41.60
78647;DHT22;67961;43.460;3.762;2023-05-10T08:52:15;21.90;41.30
78647;DHT22;67961;43.460;3.762;2023-05-10T08:54:41;22.00;42.40
78647;DHT22;67961;43.460;3.762;2023-05-10T08:57:07;22.50;41.00
78647;DHT22;67961;43.460;3.762;2023-05-10T08:59:33;22.60;40.50
78647;DHT22;67961;43.460;3.762;2023-05-10T09:01:59;22.80;40.20
78647;DHT22;67961;43.460;3.762;2023-05-10T09:04:26;22.70;40.30
78647;DHT22;67961;43.460;3.762;2023-05-10T09:06:51;22.90;39.90
78647;DHT22;67961;43.460;3.762;2023-05-10T09:09:18;22.70;39.60
78647;DHT22;67961;43.460;3.762;2023-05-10T09:11:44;22.60;39.50
78647;DHT22;67961;43.460;3.762;2023-05-10T09:14:11;22.20;40.40
78647;DHT22;67961;43.460;3.762;2023-05-10T09:16:38;22.40;39.40
78647;DHT22;67961;43.460;3.762;2023-05-10T09:19:03;22.40;39.80
78647;DHT22;67961;43.460;3.762;2023-05-10T09:21:30;22.80;39.40
78647;DHT22;67961;43.460;3.762;2023-05-10T09:23:56;23.00;39.30
78647;DHT22;67961;43.460;3.762;2023-05-10T09:26:23;22.90;38.90
78647;DHT22;67961;43.460;3.762;2023-05-10T09:28:52;23.20;38.90
78647;DHT22;67961;43.460;3.762;2023-05-10T09:31:18;23.10;38.50
78647;DHT22;67961;43.460;3.762;2023-05-10T09:33:45;23.10;39.00
78647;DHT22;67961;43.460;3.762;2023-05-10T09:36:15;23.20;38.30
78647;DHT22;67961;43.460;3.762;2023-05-10T09:38:50;23.50;37.80
78647;DHT22;67961;43.460;3.762;2023-05-10T09:41:21;23.40;37.60
78647;DHT22;67961;43.460;3.762;2023-05-10T09:43:47;23.40;37.90
78647;DHT22;67961;43.460;3.762;2023-05-10T09:46:13;23.30;38.30
78647;DHT22;67961;43.460;3.762;2023-05-10T09:48:43;23.00;38.70
78647;DHT22;67961;43.460;3.762;2023-05-10T09:51:09;23.40;39.40
78647;DHT22;67961;43.460;3.762;2023-05-10T09:53:34;23.50;38.70
78647;DHT22;67961;43.460;3.762;2023-05-10T09:56:00;23.80;39.60
78647;DHT22;67961;43.460;3.762;2023-05-10T09:58:26;24.00;38.40
78647;DHT22;67961;43.460;3.762;2023-05-10T10:00:52;24.00;37.90
78647;DHT22;67961;43.460;3.762;2023-05-10T10:03:20;23.90;37.90
78647;DHT22;67961;43.460;3.762;2023-05-10T10:05:47;24.20;37.50
78647;DHT22;67961;43.460;3.762;2023-05-10T10:08:14;24.20;36.40
78647;DHT22;67961;43.460;3.762;2023-05-10T10:10:41;24.20;36.60
78647;DHT22;67961;43.460;3.762;2023-05-10T10:13:07;24.10;36.60
78647;DHT22;67961;43.460;3.762;2023-05-10T10:15:34;24.00;36.70
78647;DHT22;67961;43.460;3.762;2023-05-10T10:18:00;23.80;35.80
78647;DHT22;67961;43.460;3.762;2023-05-10T10:20:26;23.60;37.40
78647;DHT22;67961;43.460;3.762;2023-05-10T10:22:52;23.50;37.20
78647;DHT22;67961;43.460;3.762;2023-05-10T10:25:19;23.80;37.50
78647;DHT22;67961;43.460;3.762;2023-05-10T10:30:29;24.10;36.90
78647;DHT22;67961;43.460;3.762;2023-05-10T10:35:32;23.90;37.20
78647;DHT22;67961;43.460;3.762;2023-05-10T10:37:58;24.00;37.10
78647;DHT22;67961;43.460;3.762;2023-05-10T10:40:32;23.60;37.20
78647;DHT22;67961;43.460;3.762;2023-05-10T10:46:08;23.50;37.50
78647;DHT22;67961;43.460;3.762;2023-05-10T10:48:33;23.60;38.40
78647;DHT22;67961;43.460;3.762;2023-05-10T10:50:58;24.20;38.20
78647;DHT22;67961;43.460;3.762;2023-05-10T10:53:27;24.30;38.20
78647;DHT22;67961;43.460;3.762;2023-05-10T10:56:05;24.00;38.20
78647;DHT22;67961;43.460;3.762;2023-05-10T10:58:33;24.30;38.30
78647;DHT22;67961;43.460;3.762;2023-05-10T11:01:18;24.40;37.80
78647;DHT22;67961;43.460;3.762;2023-05-10T11:06:29;24.40;36.90
78647;DHT22;67961;43.460;3.762;2023-05-10T11:08:56;24.30;37.00
78647;DHT22;67961;43.460;3.762;2023-05-10T11:11:22;24.50;37.20
78647;DHT22;67961;43.460;3.762;2023-05-10T11:13:48;24.60;37.10
78647;DHT22;67961;43.460;3.762;2023-05-10T11:16:18;24.60;36.30
78647;DHT22;67961;43.460;3.762;2023-05-10T11:21:25;25.00;37.30
78647;DHT22;67961;43.460;3.762;2023-05-10T11:23:56;25.00;36.30
78647;DHT22;67961;43.460;3.762;2023-05-10T11:26:23;24.90;36.20
78647;DHT22;67961;43.460;3.762;2023-05-10T11:28:53;24.80;36.60
78647;DHT22;67961;43.460;3.762;2023-05-10T11:31:20;24.80;36.10
78647;DHT22;67961;43.460;3.762;2023-05-10T11:33:47;25.00;35.50
78647;DHT22;67961;43.460;3.762;2023-05-10T11:36:19;24.80;36.30
78647;DHT22;67961;43.460;3.762;2023-05-10T11:38:45;24.90;35.90
78647;DHT22;67961;43.460;3.762;2023-05-10T11:41:12;24.80;36.50
78647;DHT22;67961;43.460;3.762;2023-05-10T11:43:41;25.00;35.40
78647;DHT22;67961;43.460;3.762;2023-05-10T11:46:09;24.80;35.80
78647;DHT22;67961;43.460;3.762;2023-05-10T11:48:36;25.00;35.90
78647;DHT22;67961;43.460;3.762;2023-05-10T11:51:03;24.90;36.00
78647;DHT22;67961;43.460;3.762;2023-05-10T11:53:31;24.80;36.30
78647;DHT22;67961;43.460;3.762;2023-05-10T11:56:09;24.80;36.00
78647;DHT22;67961;43.460;3.762;2023-05-10T11:58:37;25.00;36.00
78647;DHT22;67961;43.460;3.762;2023-05-10T12:01:04;25.10;35.80
78647;DHT22;67961;43.460;3.762;2023-05-10T12:03:30;25.10;35.60
78647;DHT22;67961;43.460;3.762;2023-05-10T12:05:57;24.80;35.90
78647;DHT22;67961;43.460;3.762;2023-05-10T12:08:27;24.40;35.70
78647;DHT22;67961;43.460;3.762;2023-05-10T12:11:03;24.40;35.90
78647;DHT22;67961;43.460;3.762;2023-05-10T12:13:29;24.40;36.20
78647;DHT22;67961;43.460;3.762;2023-05-10T12:15:57;24.80;35.90
78647;DHT22;67961;43.460;3.762;2023-05-10T12:18:24;25.00;35.90
78647;DHT22;67961;43.460;3.762;2023-05-10T12:20:52;24.60;36.00
78647;DHT22;67961;43.460;3.762;2023-05-10T12:23:20;24.80;36.70
78647;DHT22;67961;43.460;3.762;2023-05-10T12:25:45;25.00;36.50
78647;DHT22;67961;43.460;3.762;2023-05-10T12:28:11;24.70;36.40
78647;DHT22;67961;43.460;3.762;2023-05-10T12:30:37;24.70;36.20
78647;DHT22;67961;43.460;3.762;2023-05-10T12:33:11;24.40;36.10
78647;DHT22;67961;43.460;3.762;2023-05-10T12:36:03;24.50;36.50
78647;DHT22;67961;43.460;3.762;2023-05-10T12:38:33;24.70;36.30
78647;DHT22;67961;43.460;3.762;2023-05-10T12:41:01;24.70;36.00
78647;DHT22;67961;43.460;3.762;2023-05-10T12:43:27;24.60;36.20
78647;DHT22;67961;43.460;3.762;2023-05-10T12:45:53;24.70;36.40
78647;DHT22;67961;43.460;3.762;2023-05-10T12:48:19;24.80;36.40
78647;DHT22;67961;43.460;3.762;2023-05-10T12:50:45;24.70;35.90
78647;DHT22;67961;43.460;3.762;2023-05-10T12:53:11;24.40;35.90
78647;DHT22;67961;43.460;3.762;2023-05-10T12:55:36;24.40;36.00
78647;DHT22;67961;43.460;3.762;2023-05-10T12:58:02;24.40;36.20
78647;DHT22;67961;43.460;3.762;2023-05-10T13:00:28;24.20;36.40
78647;DHT22;67961;43.460;3.762;2023-05-10T13:02:53;24.10;36.60
78647;DHT22;67961;43.460;3.762;2023-05-10T13:05:19;24.30;36.90
78647;DHT22;67961;43.460;3.762;2023-05-10T13:07:45;24.40;36.40
78647;DHT22;67961;43.460;3.762;2023-05-10T13:10:10;24.40;36.50
78647;DHT22;67961;43.460;3.762;2023-05-10T13:12:36;24.40;36.60
78647;DHT22;67961;43.460;3.762;2023-05-10T13:15:03;24.50;36.70
78647;DHT22;67961;43.460;3.762;2023-05-10T13:17:29;24.60;36.50
78647;DHT22;67961;43.460;3.762;2023-05-10T13:19:55;24.50;36.80
78647;DHT22;67961;43.460;3.762;2023-05-10T13:22:20;24.20;37.10
78647;DHT22;67961;43.460;3.762;2023-05-10T13:24:46;23.80;37.20
78647;DHT22;67961;43.460;3.762;2023-05-10T13:27:11;23.50;37.60
78647;DHT22;67961;43.460;3.762;2023-05-10T13:29:37;23.20;38.20
78647;DHT22;67961;43.460;3.762;2023-05-10T13:32:03;22.90;38.20
78647;DHT22;67961;43.460;3.762;2023-05-10T13:34:28;23.10;38.20
78647;DHT22;67961;43.460;3.762;2023-05-10T13:36:54;23.20;37.80
78647;DHT22;67961;43.460;3.762;2023-05-10T13:39:22;23.30;37.90
78647;DHT22;67961;43.460;3.762;2023-05-10T13:41:48;23.30;38.00
78647;DHT22;67961;43.460;3.762;2023-05-10T13:44:14;23.30;38.00
78647;DHT22;67961;43.460;3.762;2023-05-10T13:46:41;23.40;38.60
78647;DHT22;67961;43.460;3.762;2023-05-10T13:49:08;23.50;38.30
78647;DHT22;67961;43.460;3.762;2023-05-10T13:51:34;23.50;38.70
78647;DHT22;67961;43.460;3.762;2023-05-10T13:54:00;23.60;38.50
78647;DHT22;67961;43.460;3.762;2023-05-10T13:56:26;23.80;38.80
78647;DHT22;67961;43.460;3.762;2023-05-10T13:58:51;23.90;38.70
78647;DHT22;67961;43.460;3.762;2023-05-10T14:01:17;23.60;38.30
78647;DHT22;67961;43.460;3.762;2023-05-10T14:03:43;23.30;38.50
78647;DHT22;67961;43.460;3.762;2023-05-10T14:06:08;22.60;39.40
78647;DHT22;67961;43.460;3.762;2023-05-10T14:08:35;22.50;39.70
78647;DHT22;67961;43.460;3.762;2023-05-10T14:11:01;22.50;39.80
78647;DHT22;67961;43.460;3.762;2023-05-10T14:13:26;22.60;39.90
78647;DHT22;67961;43.460;3.762;2023-05-10T14:15:53;22.70;39.70
78647;DHT22;67961;43.460;3.762;2023-05-10T14:18:19;22.50;40.00
78647;DHT22;67961;43.460;3.762;2023-05-10T14:20:45;22.50;40.30
78647;DHT22;67961;43.460;3.762;2023-05-10T14:23:11;22.50;40.60
78647;DHT22;67961;43.460;3.762;2023-05-10T14:25:39;22.50;40.40
78647;DHT22;67961;43.460;3.762;2023-05-10T14:28:05;22.70;40.30
78647;DHT22;67961;43.460;3.762;2023-05-10T14:30:31;22.70;40.10
78647;DHT22;67961;43.460;3.762;2023-05-10T14:32:57;22.60;39.50
78647;DHT22;67961;43.460;3.762;2023-05-10T14:35:24;22.40;39.80
78647;DHT22;67961;43.460;3.762;2023-05-10T14:37:49;22.30;39.70
78647;DHT22;67961;43.460;3.762;2023-05-10T14:40:15;22.20;39.80
78647;DHT22;67961;43.460;3.762;2023-05-10T14:42:42;22.10;39.40
78647;DHT22;67961;43.460;3.762;2023-05-10T14:45:09;22.00;39.10
78647;DHT22;67961;43.460;3.762;2023-05-10T14:47:35;22.00;39.20
78647;DHT22;67961;43.460;3.762;2023-05-10T14:50:01;22.00;39.60
78647;DHT22;67961;43.460;3.762;2023-05-10T14:52:27;22.10;39.60
78647;DHT22;67961;43.460;3.762;2023-05-10T14:54:52;22.00;40.00
78647;DHT22;67961;43.460;3.762;2023-05-10T14:57:18;22.30;39.60
78647;DHT22;67961;43.460;3.762;2023-05-10T14:59:44;22.50;39.40
78647;DHT22;67961;43.460;3.762;2023-05-10T15:02:10;22.50;39.20
78647;DHT22;67961;43.460;3.762;2023-05-10T15:04:36;22.50;39.60
78647;DHT22;67961;43.460;3.762;2023-05-10T15:07:02;22.50;39.90
78647;DHT22;67961;43.460;3.762;2023-05-10T15:09:27;22.50;40.00
78647;DHT22;67961;43.460;3.762;2023-05-10T15:11:53;22.30;40.40
78647;DHT22;67961;43.460;3.762;2023-05-10T15:14:19;22.20;40.40
78647;DHT22;67961;43.460;3.762;2023-05-10T15:16:45;22.10;40.40
78647;DHT22;67961;43.460;3.762;2023-05-10T15:19:11;22.10;40.50
78647;DHT22;67961;43.460;3.762;2023-05-10T15:21:36;22.10;40.70
78647;DHT22;67961;43.460;3.762;2023-05-10T15:24:07;22.00;40.80
78647;DHT22;67961;43.460;3.762;2023-05-10T15:26:33;22.10;41.10
78647;DHT22;67961;43.460;3.762;2023-05-10T15:28:58;22.20;41.00
78647;DHT22;67961;43.460;3.762;2023-05-10T15:31:24;22.00;41.20
78647;DHT22;67961;43.460;3.762;2023-05-10T15:33:50;21.90;41.60
78647;DHT22;67961;43.460;3.762;2023-05-10T15:36:16;22.00;41.70
78647;DHT22;67961;43.460;3.762;2023-05-10T15:38:43;22.00;41.60
78647;DHT22;67961;43.460;3.762;2023-05-10T15:41:09;22.00;41.50
78647;DHT22;67961;43.460;3.762;2023-05-10T15:43:34;22.10;41.30
78647;DHT22;67961;43.460;3.762;2023-05-10T15:46:00;22.10;40.50
78647;DHT22;67961;43.460;3.762;2023-05-10T15:48:27;22.10;39.80
78647;DHT22;67961;43.460;3.762;2023-05-10T15:50:52;22.20;39.80
78647;DHT22;67961;43.460;3.762;2023-05-10T15:53:18;22.10;39.50
78647;DHT22;67961;43.460;3.762;2023-05-10T15:55:44;22.10;40.10
78647;DHT22;67961;43.460;3.762;2023-05-10T15:58:09;22.00;40.30
78647;DHT22;67961;43.460;3.762;2023-05-10T16:00:35;22.00;41.00
78647;DHT22;67961;43.460;3.762;2023-05-10T16:03:01;21.90;41.10
78647;DHT22;67961;43.460;3.762;2023-05-10T16:05:27;21.80;41.30
78647;DHT22;67961;43.460;3.762;2023-05-10T16:07:56;21.70;41.20
78647;DHT22;67961;43.460;3.762;2023-05-10T16:10:22;21.70;41.20